• Join FlightAware (Why Join?)
  • Login
  • US Flag 
07:00AM EDT


 

Airport Tracker/Info


-or-


 

Live Flight TrackerFlight Track Log ✈ AVN50 ✈ 09-Oct-2013 ✈ NVVV / VLI - NZAA / AKL

Flight Track Log - Related Links

Times and Time Zones

All times are in EDT time to prevent confusion due to time zone crossing. See the AVN50 flight status page for this flight to view local times or setup timezone preferences in your user account.

Time Position Orientation Groundspeed Altitude Reporting Facility
EDT Latitude Longitude Course Direction KTS MPH feet Rate Location/Type
04:01PM -18.3749 168.5033 166° South  Level FlightAware Approximate
04:02PM -18.4875 168.5341 165° South  Level FlightAware Approximate
04:03PM -18.6001 168.5648 165° South  Level FlightAware Approximate
04:04PM -18.7127 168.5956 165° South  Level FlightAware Approximate
04:05PM -18.8253 168.6265 165° South  Level FlightAware Approximate
04:06PM -18.9378 168.6574 165° South  Level FlightAware Approximate
04:07PM -19.0504 168.6883 165° South  Level FlightAware Approximate
04:08PM -19.1630 168.7193 165° South  Level FlightAware Approximate
04:09PM -19.2755 168.7503 165° South  Level FlightAware Approximate
04:10PM -19.3880 168.7814 165° South  Level FlightAware Approximate
04:11PM -19.5006 168.8125 165° South  Level FlightAware Approximate
04:12PM -19.6131 168.8436 165° South  Level FlightAware Approximate
04:13PM -19.7256 168.8748 165° South  Level FlightAware Approximate
04:14PM -19.8382 168.9060 165° South  Level FlightAware Approximate
04:15PM -19.9507 168.9373 165° South  Level FlightAware Approximate
04:16PM -20.0632 168.9686 165° South  Level FlightAware Approximate
04:17PM -20.1757 169.0000 165° South  Level FlightAware Approximate
04:18PM -20.2882 169.0314 165° South  Level FlightAware Approximate
04:19PM -20.4007 169.0629 165° South  Level FlightAware Approximate
04:20PM -20.5132 169.0943 165° South  Level FlightAware Approximate
04:21PM -20.6257 169.1259 165° South  Level FlightAware Approximate
04:22PM -20.7381 169.1575 165° South  Level FlightAware Approximate
04:23PM -20.8506 169.1891 165° South  Level FlightAware Approximate
04:24PM -20.9631 169.2208 165° South  Level FlightAware Approximate
04:25PM -21.0756 169.2526 165° South  Level FlightAware Approximate
04:26PM -21.1880 169.2844 165° South  Level FlightAware Approximate
04:26PM -21.3690 169.2340 165° South 518 596 35,000  Level FlightAware
04:26PM -21.4490 169.2580 164° South 517 595 35,000  Level FlightAware
04:27PM -21.5360 169.2850 164° South 517 595 35,000  Level FlightAware
04:27PM -21.6070 169.3070 164° South 517 595 35,000  Level FlightAware
04:28PM -21.7150 169.3400 164° South 521 600 35,000  Level FlightAware
04:29PM -21.8220 169.3730 164° South 522 601 35,000  Level FlightAware
04:30PM -21.9320 169.4080 164° South 522 601 35,000  Level FlightAware
04:30PM -22.0220 169.4380 163° South 522 601 35,000  Level FlightAware
04:31PM -22.1010 169.4640 163° South 522 601 35,000  Level FlightAware
04:32PM -22.1680 169.4860 163° South 522 601 35,000  Level FlightAware
04:32PM -22.2380 169.5090 163° South 522 601 35,000  Level FlightAware
04:33PM -22.3090 169.5320 163° South 522 601 35,000  Level FlightAware
04:34PM -22.3800 169.5560 163° South 522 601 35,000  Level FlightAware
04:34PM -22.4500 169.5790 163° South 522 601 35,000  Level FlightAware
04:35PM -22.5230 169.6030 163° South 522 601 35,000  Level FlightAware
04:35PM -22.7320 169.6550 167° South 525 604 35,000  Level FlightAware
04:36PM -22.8240 169.6840 164° South 525 604 35,000  Level FlightAware
04:37PM -22.9020 169.7090 164° South 525 604 35,000  Level FlightAware
04:37PM -22.9790 169.7320 165° South 524 603 35,000  Level FlightAware
04:38PM -23.0520 169.7570 163° South 524 603 35,000  Level FlightAware
04:38PM -23.1220 169.7800 163° South 524 603 35,000  Level FlightAware
04:39PM -23.2720 169.8250 165° South 521 600 35,000  Level FlightAware
04:40PM -23.3910 169.8630 164° South 521 600 35,000  Level FlightAware
04:41PM -23.4630 169.8880 162° South 521 600 35,000  Level FlightAware
04:41PM -23.5340 169.9110 163° South 521 600 35,000  Level FlightAware
04:42PM -23.6490 169.9440 165° South 519 597 35,000  Level FlightAware
04:42PM -23.7330 169.9700 164° South 520 598 35,000  Level FlightAware
04:43PM -23.8180 169.9980 163° South 520 598 35,000  Level FlightAware
04:44PM -23.9020 170.0250 164° South 520 598 35,000  Level FlightAware
04:44PM -23.9990 170.0550 164° South 520 598 35,000  Level FlightAware
04:45PM -24.0620 170.0760 163° South 520 598 35,000  Level FlightAware
04:46PM -24.1340 170.1000 163° South 520 598 35,000  Level FlightAware
04:46PM -24.2050 170.1240 163° South 520 598 35,000  Level FlightAware
04:47PM -24.2750 170.1470 163° South 520 598 35,000  Level FlightAware
04:47PM -24.3460 170.1710 163° South 520 598 35,000  Level FlightAware
04:48PM -24.4980 170.2150 165° South 526 605 35,000  Level FlightAware
04:49PM -24.6000 170.2480 164° South 527 606 35,000  Level FlightAware
04:49PM -24.6860 170.2750 164° South 528 608 35,000  Level FlightAware
04:50PM -24.7450 170.2950 163° South 528 608 35,000  Level FlightAware
04:50PM -24.8160 170.3190 163° South 528 608 35,000  Level FlightAware
04:51PM -24.8900 170.3440 163° South 528 608 35,000  Level FlightAware
04:52PM -24.9630 170.3690 163° South 528 608 35,000  Level FlightAware
04:52PM -25.0350 170.3930 163° South 528 608 35,000  Level FlightAware
04:53PM -25.1060 170.4170 163° South 528 608 35,000  Level FlightAware
04:53PM -25.1800 170.4420 163° South 528 608 35,000  Level FlightAware
04:54PM -25.2510 170.4660 163° South 528 608 35,000  Level FlightAware
04:55PM -25.3230 170.4900 163° South 528 608 35,000  Level FlightAware
04:55PM -25.3940 170.5140 163° South 528 608 35,000  Level FlightAware
04:56PM -25.4660 170.5380 163° South 528 608 35,000  Level FlightAware
04:56PM -25.5370 170.5630 162° South 528 608 35,000  Level FlightAware
04:57PM -25.6090 170.5870 163° South 528 608 35,000  Level FlightAware
04:58PM -25.7333 170.6167 163° South 523 602  Descending New Zealand
04:58PM -25.6800 170.6110 163° South 528 608 35,000 55,260 Climbing FlightAware
04:58PM -25.7520 170.6350 163° South 528 608 35,000  Level FlightAware
04:59PM -25.8230 170.6600 162° South 528 608 35,000  Level FlightAware
05:00PM -26.1667 170.7500 162° South 530 610  Descending New Zealand
05:02PM -26.4500 170.8500 162° South 530 610 660 Level New Zealand
05:04PM -26.7333 170.9333 165° South 530 610 660 Level New Zealand
05:06PM -27.0167 171.0333 163° South 530 610 720 Level New Zealand
05:08PM -27.3000 171.1167 165° South 530 610 720 Level New Zealand
05:10PM -27.6000 171.2167 164° South 530 610 780 Level New Zealand
05:12PM -27.8833 171.3000 165° South 530 610 840 Level New Zealand
05:14PM -28.1667 171.4000 163° South 530 610 840 Level New Zealand
05:16PM -28.4500 171.4833 166° South 530 610 900 Level New Zealand
05:18PM -28.7333 171.5833 163° South 530 610 960 Level New Zealand
05:20PM -29.0167 171.6833 163° South 530 610 1,020 Level New Zealand
05:22PM -29.3000 171.7667 166° South 530 610 1,080 Level New Zealand
05:24PM -29.5833 171.8667 163° South 519 597 1,140 Level New Zealand
05:26PM -29.8500 171.9667 162° South 522 601 1,200 Level New Zealand
05:28PM -30.1333 172.0500 166° South 522 601 1,320 Level New Zealand
05:30PM -30.4167 172.1500 163° South 522 601 1,380 Level New Zealand
05:32PM -30.7000 172.2500 163° South 522 601 1,500 Level New Zealand
05:34PM -30.9667 172.3500 162° South 522 601 1,680 Level New Zealand
05:36PM -31.2500 172.4500 163° South 522 601 1,800 Level New Zealand
05:38PM -31.5333 172.5333 166° South 522 601 2,040 Level New Zealand
05:40PM -31.8167 172.6333 163° South 522 601 2,280 Level New Zealand
05:42PM -32.0833 172.7333 162° South 522 601 2,640 Level New Zealand
05:44PM -32.3667 172.8333 163° South 522 601 3,060 Level New Zealand
05:46PM -32.6500 172.9333 163° South 522 601 3,660 Level New Zealand
05:48PM -32.9167 173.0333 163° South 522 601 4,620 Level New Zealand
05:50PM -33.2000 173.1333 164° South 522 601 6,180 Level New Zealand
05:52PM -33.4833 173.2500 161° South 522 601 9,300 Level New Zealand
05:53PM -33.5333 173.2500 180° South 511 588 18,780 Level New Zealand
05:54PM -33.6230 173.2950 180° South 504 580 37,000 30,780 Climbing FlightAware
05:54PM -33.6890 173.3190 163° South 505 581 37,000  Level FlightAware
05:55PM -33.7940 173.3590 163° South 504 580 37,000  Level FlightAware
05:55PM -33.8000 173.3667 163° South 511 588  Descending New Zealand
05:55PM -33.8820 173.3970 160° South 510 587 37,000 33,600 Climbing FlightAware
05:56PM -33.9470 173.4400 151° Southeast 524 603 37,000  Level FlightAware
05:57PM -34.0180 173.4920 149° Southeast 516 594 37,000  Level FlightAware
05:57PM -34.0900 173.5470 148° Southeast 515 593 37,000  Level FlightAware
05:58PM -34.1600 173.5990 148° Southeast 515 593 37,000  Level FlightAware
05:58PM -34.2340 173.6550 148° Southeast 513 590 37,000  Level FlightAware
05:59PM -34.3167 173.7167 148° Southeast 518 596  Descending New Zealand
05:59PM -34.3150 173.7160 148° Southeast 512 589 37,000 73,980 Climbing FlightAware
05:59PM -34.3760 173.7610 149° Southeast 511 588 37,000  Level FlightAware
06:00PM -34.4333 173.8000 149° Southeast 517 595  Descending New Zealand
06:00PM -34.4500 173.8160 149° Southeast 511 588 37,000 55,500 Climbing FlightAware
06:01PM -34.5210 173.8700 148° Southeast 511 588 37,000  Level FlightAware
06:01PM -34.5920 173.9240 148° Southeast 511 588 37,000  Level FlightAware
06:02PM -34.6610 173.9770 148° Southeast 496 571 37,000  Level FlightAware
06:02PM -34.7280 174.0270 148° Southeast 491 565 37,000  Level FlightAware
06:03PM -34.7960 174.0790 148° Southeast 489 563 37,000  Level FlightAware
06:03PM -34.8000 174.0833 148° Southeast 490 564  Descending New Zealand
06:04PM -34.8620 174.1290 148° Southeast 481 554 37,000 33,600 Climbing FlightAware
06:04PM -34.9167 174.1667 148° Southeast 489 563  Descending New Zealand
06:04PM -34.9300 174.1810 148° Southeast 483 556 37,000 54,120 Climbing FlightAware
06:05PM -34.9990 174.2340 148° Southeast 494 568 37,000 -120 Level FlightAware
06:05PM -35.0680 174.2880 147° Southeast 492 566 36,900 -600 Descending FlightAware
06:06PM -35.1320 174.3370 148° Southeast 478 550 36,300 -1,500 Descending FlightAware
06:07PM -35.1980 174.3870 148° Southeast 474 545 35,200 -1,980 Descending FlightAware
06:07PM -35.2630 174.4370 148° Southeast 470 541 34,000 -1,800 Descending FlightAware
06:07PM -35.2667 174.4333 148° Southeast 472 543 -1,560 Descending New Zealand
06:08PM -35.3270 174.4870 147° Southeast 461 531 33,100 28,080 Climbing FlightAware
06:08PM -35.3900 174.5360 148° Southeast 439 505 32,300 -1,740 Descending FlightAware
06:09PM -35.4490 174.5810 148° Southeast 437 503 31,100 -1,980 Descending FlightAware
06:09PM -35.5100 174.6280 148° Southeast 416 479 30,000 -1,740 Descending FlightAware
06:10PM -35.5650 174.6710 148° Southeast 403 464 29,100 -1,680 Descending FlightAware
06:11PM -35.6130 174.7090 147° Southeast 397 457 28,200 -1,560 Descending FlightAware
06:11PM -35.6730 174.7550 147° Southeast 369 425 27,300 -1,440 Descending FlightAware
06:11PM -35.6833 174.7500 147° Southeast 382 440 -1,500 Descending New Zealand
06:12PM -35.7230 174.7950 147° Southeast 350 403 26,400 21,900 Climbing FlightAware
06:12PM -35.7710 174.8330 147° Southeast 345 397 25,200 -2,160 Descending FlightAware
06:13PM -35.8210 174.8710 148° Southeast 346 398 23,900 -1,800 Descending FlightAware
06:14PM -35.8680 174.9080 147° Southeast 343 395 23,100 -1,440 Descending FlightAware
06:14PM -35.9210 174.9500 147° Southeast 327 376 22,100 -1,380 Descending FlightAware
06:14PM -35.9333 174.9500 147° Southeast 338 389 -1,260 Descending New Zealand
06:15PM -35.9650 174.9850 147° Southeast 330 380 21,400 18,960 Climbing FlightAware
06:15PM -36.0000 175.0167 147° Southeast 331 381 -1,380 Descending New Zealand
06:15PM -36.0110 175.0210 147° Southeast 324 373 20,600 30,420 Climbing FlightAware
06:16PM -36.0560 175.0560 148° Southeast 331 381 19,800 -1,380 Descending FlightAware
06:17PM -36.1020 175.0930 147° Southeast 330 380 19,000 -1,380 Descending FlightAware
06:17PM -36.1520 175.1330 147° Southeast 330 380 18,100 -1,440 Descending FlightAware
06:18PM -36.1910 175.1640 147° Southeast 327 376 17,400 -1,440 Descending FlightAware
06:18PM -36.2350 175.1990 147° Southeast 322 371 16,600 -1,320 Descending FlightAware
06:18PM -36.2333 175.2000 147° Southeast 327 376 -1,200 Descending New Zealand
06:19PM -36.2790 175.2340 147° Southeast 307 353 15,900 13,500 Climbing FlightAware
06:19PM -36.3167 175.2667 147° Southeast 312 359 -1,380 Descending New Zealand
06:19PM -36.3220 175.2670 147° Southeast 307 353 15,100 20,880 Climbing FlightAware
06:20PM -36.3660 175.2940 154° Southeast 275 316 14,300 -1,200 Descending FlightAware
06:21PM -36.3960 175.2880 189° South 257 296 13,800 -1,200 Descending FlightAware
06:21PM -36.4360 175.2700 200° South 253 291 13,100 -1,080 Descending FlightAware
06:22PM -36.4790 175.2510 200° South 247 284 12,500 -900 Descending FlightAware
06:22PM -36.4940 175.2460 195° South 247 284 12,300 -1,080 Descending FlightAware
06:22PM -36.5190 175.2540 166° South 266 306 11,900 -900 Descending FlightAware
06:23PM -36.5630 175.2760 158° South 257 296 11,400 -960 Descending FlightAware
06:24PM -36.5970 175.2930 158° South 254 292 10,800 -1,200 Descending FlightAware
06:24PM -36.6300 175.3090 159° South 253 291 10,200 -1,080 Descending FlightAware
06:24PM -36.6510 175.3190 159° South 250 288 9,900 -1,080 Descending FlightAware
06:25PM -36.6720 175.3290 159° South 247 284 9,500 -1,200 Descending FlightAware
06:25PM -36.6890 175.3380 157° South 246 283 9,200 -1,380 Descending FlightAware
06:25PM -36.7110 175.3490 158° South 245 282 8,700 -1,200 Descending FlightAware
06:26PM -36.7310 175.3590 158° South 243 280 8,400 -780 Descending FlightAware
06:26PM -36.7530 175.3690 160° South 243 280 8,200 -600 Descending FlightAware
06:26PM -36.7740 175.3790 159° South 243 280 8,000 -600 Descending FlightAware
06:27PM -36.7950 175.3890 159° South 242 278 7,800 -600 Descending FlightAware
06:27PM -36.8160 175.3980 161° South 241 277 7,600 -480 Descending FlightAware
06:27PM -36.8210 175.4000 162° South 235 270 7,600  Level FlightAware
06:27PM -36.8270 175.4000 180° South 227 261 7,600 -420 Level FlightAware
06:28PM -36.8490 175.3910 198° South 215 247 7,400 -540 Descending FlightAware
06:28PM -36.8680 175.3810 203° Southwest 214 246 7,200 -480 Descending FlightAware
06:28PM -36.8850 175.3720 203° Southwest 213 245 7,100 -300 Descending FlightAware
06:29PM -36.9040 175.3620 203° Southwest 214 246 7,000 -480 Descending FlightAware
06:29PM -36.9230 175.3520 203° Southwest 211 243 6,800 -360 Descending FlightAware
06:29PM -36.9350 175.3440 208° Southwest 204 235 6,800 -240 Level FlightAware
06:29PM -36.9400 175.3360 232° Southwest 197 227 6,700 -420 Descending FlightAware
06:29PM -36.9420 175.3300 247° West 195 224 6,700 -600 Level FlightAware
06:29PM -36.9430 175.3250 256° West 195 224 6,600 -420 Descending FlightAware
06:30PM -36.9430 175.3130 270° West 199 229 6,600 -420 Level FlightAware
06:30PM -36.9420 175.2900 273° West 197 227 6,400 -420 Descending FlightAware
06:30PM -36.9420 175.2610 270° West 196 226 6,300 -420 Descending FlightAware
06:31PM -36.9410 175.2400 273° West 194 223 6,100 -480 Descending FlightAware
06:31PM -36.9400 175.2170 273° West 191 220 6,000 -480 Descending FlightAware
06:31PM -36.9400 175.1970 270° West 191 220 5,800 -480 Descending FlightAware
06:32PM -36.9390 175.1740 273° West 192 221 5,700 -300 Descending FlightAware
06:32PM -36.9370 175.1470 275° West 194 223 5,600 -540 Descending FlightAware
06:32PM -36.9370 175.1240 270° West 190 219 5,300 -600 Descending FlightAware
06:33PM -36.9360 175.1030 273° West 193 222 5,200 -480 Descending FlightAware
06:33PM -36.9360 175.0810 270° West 185 213 5,000 -840 Descending FlightAware
06:34PM -36.9390 175.0510 270° West 176 203 4,500 -900 Descending FlightAware
06:34PM -36.9333 175.0500 270° West 174 200 -600 Descending New Zealand
06:34PM -36.9400 175.0440 260° West 176 203 4,400 6,840 Climbing FlightAware
06:34PM -36.9470 175.0200 250° West 175 201 3,900 -1,080 Descending FlightAware
06:35PM -36.9520 175.0010 252° West 171 197 3,600 -900 Descending FlightAware
06:35PM -36.9560 174.9890 247° West 168 193 3,400 -1,140 Descending FlightAware
06:35PM -36.9650 174.9550 252° West 160 184 2,800 -1,140 Descending FlightAware
06:36PM -36.9690 174.9420 249° West 157 181 2,600 -840 Descending FlightAware
06:36PM -36.9740 174.9250 250° West 157 181 2,300 -840 Descending FlightAware
06:36PM -36.9790 174.9060 252° West 159 183 2,000 -600 Descending FlightAware
06:37PM -36.9800 174.9000 258° West 162 186 1,900 -720 Descending FlightAware
06:37PM -36.9880 174.8740 249° West 159 183 1,500 -840 Descending FlightAware
06:37PM -36.9920 174.8580 253° West 140 161 1,200 -780 Descending FlightAware
06:38PM -36.9960 174.8450 249° West 133 153 1,000 -600 Descending FlightAware
06:38PM -37.0000 174.8310 250° West 124 143 800 -840 Descending FlightAware
06:39PM -37.0080 174.8020 251° West 122 140 300 -1,080 Descending FlightAware